Time;durP1;ratioP1;P1;durP2;ratioP2;P2;SDS_P1;SDS_P2;PMS_P1;PMS_P2;Temp;Humidity;BMP_temperature;BMP_pressure;BME280_temperature;BME280_humidity;BME280_pressure;Samples;Min_cycle;Max_cycle;Signal;HPM_P1;HPM_P2
2022/06/04 00:01:50;;;;;;;18.08;4.35;;;12.30;99.90;;;;;;5058744;28;20060;-79
2022/06/04 00:04:16;;;;;;;19.80;4.93;;;12.30;99.90;;;;;;5073623;28;20129;-79
2022/06/04 00:06:44;;;;;;;11.30;3.75;;;12.30;99.90;;;;;;5072600;28;20052;-79
2022/06/04 00:09:10;;;;;;;15.10;4.30;;;12.30;99.90;;;;;;5072530;28;20049;-80
2022/06/04 00:17:10;;;;;;;12.63;4.15;;;12.30;99.90;;;;;;5054230;28;20142;-76
2022/06/04 00:19:37;;;;;;;13.38;3.90;;;12.20;99.90;;;;;;5073027;28;20153;-76
2022/06/04 00:22:04;;;;;;;10.15;3.90;;;12.20;99.90;;;;;;5054608;28;20049;-77
2022/06/04 00:24:30;;;;;;;12.75;4.47;;;12.20;99.90;;;;;;5053582;28;20052;-77
2022/06/04 00:26:56;;;;;;;12.98;4.47;;;12.30;99.90;;;;;;5054527;28;20129;-81
2022/06/04 00:29:22;;;;;;;10.27;4.30;;;12.30;99.90;;;;;;5072436;28;20044;-77
2022/06/04 00:31:48;;;;;;;13.43;4.50;;;12.20;99.90;;;;;;5073155;28;20063;-80
2022/06/04 00:34:15;;;;;;;13.63;3.95;;;12.30;99.90;;;;;;5055833;28;20501;-81
2022/06/04 00:36:40;;;;;;;11.15;4.18;;;12.30;99.90;;;;;;5055406;28;20044;-80
2022/06/04 00:39:06;;;;;;;10.60;4.18;;;12.20;99.90;;;;;;5038224;28;20519;-79
2022/06/04 00:41:47;;;;;;;10.20;4.10;;;12.20;99.90;;;;;;5071184;28;20515;-80
2022/06/04 00:44:17;;;;;;;10.43;3.63;;;12.20;99.90;;;;;;5071313;28;20088;-81
2022/06/04 00:47:13;;;;;;;12.98;3.42;;;12.20;99.90;;;;;;5072001;28;20063;-78
2022/06/04 00:49:39;;;;;;;12.40;4.45;;;12.20;99.90;;;;;;5071546;28;20511;-76
2022/06/04 00:52:11;;;;;;;10.63;4.20;;;12.20;99.90;;;;;;5053716;28;20472;-79
2022/06/04 00:54:37;;;;;;;11.40;4.25;;;12.30;99.90;;;;;;5053667;28;20060;-75
2022/06/04 00:57:39;;;;;;;11.13;3.65;;;12.20;99.90;;;;;;5053658;28;20058;-77
2022/06/04 01:00:17;;;;;;;10.48;3.70;;;12.20;99.90;;;;;;5050417;28;20045;-77
2022/06/04 01:03:10;;;;;;;9.57;3.60;;;12.20;99.90;;;;;;5054172;28;20052;-80
2022/06/04 01:06:21;;;;;;;7.82;3.25;;;12.20;99.90;;;;;;5071267;28;20084;-79
2022/06/04 01:09:10;;;;;;;10.48;3.90;;;12.20;99.90;;;;;;5009482;28;20056;-79
2022/06/04 01:12:09;;;;;;;8.38;3.03;;;12.20;99.90;;;;;;5030043;28;20413;-77
2022/06/04 01:15:02;;;;;;;9.93;3.70;;;12.10;99.90;;;;;;5053029;28;20492;-78
2022/06/04 01:17:35;;;;;;;12.40;4.30;;;12.10;99.90;;;;;;5052383;28;20052;-78
2022/06/04 01:20:19;;;;;;;10.52;4.18;;;12.10;99.90;;;;;;5036238;28;20057;-77
2022/06/04 01:22:54;;;;;;;8.98;3.38;;;12.20;99.90;;;;;;5070881;28;20686;-78
2022/06/04 01:25:20;;;;;;;9.32;4.15;;;12.20;99.90;;;;;;5036413;28;20048;-80
2022/06/04 01:27:56;;;;;;;11.63;3.75;;;12.10;99.90;;;;;;5071412;28;20507;-78
2022/06/04 01:30:27;;;;;;;9.95;3.42;;;12.10;99.90;;;;;;5070981;28;20117;-78
2022/06/04 01:33:03;;;;;;;8.95;3.88;;;12.10;99.90;;;;;;5071160;28;20121;-79
2022/06/04 01:35:35;;;;;;;8.77;3.20;;;12.10;99.90;;;;;;5052617;28;20056;-78
2022/06/04 01:38:22;;;;;;;6.85;3.25;;;12.10;99.90;;;;;;5070477;28;20048;-80
2022/06/04 01:41:04;;;;;;;7.47;2.80;;;12.10;99.90;;;;;;5070823;28;20098;-80
2022/06/04 01:43:58;;;;;;;9.40;4.15;;;12.10;99.90;;;;;;5052706;28;20056;-78
2022/06/04 01:46:48;;;;;;;9.45;4.07;;;12.00;99.90;;;;;;5048994;28;20381;-80
2022/06/04 01:49:31;;;;;;;7.70;2.97;;;12.00;99.90;;;;;;5052787;28;20057;-78
2022/06/04 01:52:06;;;;;;;10.38;3.22;;;12.00;99.90;;;;;;5070725;28;20139;-79
2022/06/04 01:54:39;;;;;;;9.65;3.25;;;12.00;99.90;;;;;;5052629;28;20048;-78
2022/06/04 01:57:15;;;;;;;8.43;3.70;;;12.00;99.90;;;;;;5070895;28;20044;-79
2022/06/04 01:59:48;;;;;;;8.45;3.92;;;11.90;99.90;;;;;;5053307;28;20194;-79
2022/06/04 02:02:20;;;;;;;10.90;2.90;;;11.90;99.90;;;;;;5057046;28;20048;-79
2022/06/04 02:04:51;;;;;;;9.05;2.40;;;11.90;99.90;;;;;;5077641;28;20049;-77
2022/06/04 02:07:31;;;;;;;7.00;2.55;;;11.90;99.90;;;;;;5060722;28;20045;-79
2022/06/04 02:10:16;;;;;;;7.80;2.65;;;11.90;99.90;;;;;;5074836;28;20167;-79
2022/06/04 02:12:44;;;;;;;10.65;3.40;;;11.90;99.90;;;;;;5074249;28;20051;-78
2022/06/04 02:15:16;;;;;;;9.13;3.25;;;11.80;99.90;;;;;;5074111;28;20456;-78
2022/06/04 02:17:48;;;;;;;7.18;2.60;;;11.80;99.90;;;;;;5074578;28;20135;-80
2022/06/04 02:20:14;;;;;;;6.38;2.47;;;11.80;99.90;;;;;;5074247;28;20488;-79
2022/06/04 02:22:41;;;;;;;6.97;3.20;;;11.80;99.90;;;;;;5074461;28;20071;-77
2022/06/04 02:25:10;;;;;;;9.05;2.50;;;11.80;99.90;;;;;;5074687;28;20057;-77
2022/06/04 02:27:36;;;;;;;8.95;2.70;;;11.80;99.90;;;;;;5074210;28;20508;-77
2022/06/04 02:30:03;;;;;;;8.57;2.75;;;11.80;99.90;;;;;;5056235;28;20120;-79
2022/06/04 02:32:57;;;;;;;8.48;3.05;;;11.80;99.90;;;;;;5073783;28;20088;-81
2022/06/04 02:35:47;;;;;;;8.90;3.13;;;11.80;99.90;;;;;;5073817;28;20485;-79
2022/06/04 02:38:55;;;;;;;8.68;4.10;;;11.80;99.90;;;;;;5056077;28;20575;-79
2022/06/04 02:41:34;;;;;;;6.97;3.42;;;11.80;99.90;;;;;;5054465;28;20048;-78
2022/06/04 02:44:31;;;;;;;8.35;3.08;;;11.80;99.90;;;;;;5074611;28;20123;-80
2022/06/04 02:47:19;;;;;;;8.98;3.00;;;11.80;99.90;;;;;;5058118;28;20474;-78
2022/06/04 02:49:53;;;;;;;9.10;3.17;;;11.80;99.90;;;;;;5055582;28;20044;-77
2022/06/04 02:52:21;;;;;;;7.95;3.35;;;11.80;99.90;;;;;;5056607;28;20060;-75
2022/06/04 02:55:00;;;;;;;7.05;3.40;;;11.80;99.90;;;;;;5074354;28;20131;-76
2022/06/04 02:57:29;;;;;;;10.30;3.17;;;11.80;99.90;;;;;;5055345;28;20488;-79
2022/06/04 02:59:55;;;;;;;11.02;2.97;;;11.70;99.90;;;;;;5056292;28;20068;-77
2022/06/04 03:02:24;;;;;;;12.30;3.30;;;11.80;99.90;;;;;;5074154;28;20102;-82
2022/06/04 03:04:55;;;;;;;10.05;3.88;;;11.80;99.90;;;;;;5074726;28;20115;-78
2022/06/04 03:07:23;;;;;;;8.50;2.55;;;11.70;99.90;;;;;;5059432;28;20095;-78
2022/06/04 03:10:01;;;;;;;9.57;3.05;;;11.70;99.90;;;;;;5078713;28;20052;-80
2022/06/04 03:12:27;;;;;;;5.65;3.05;;;11.70;99.90;;;;;;5056127;28;20084;-79
2022/06/04 03:14:53;;;;;;;5.40;3.30;;;11.70;99.90;;;;;;5038799;28;20062;-78
2022/06/04 03:17:19;;;;;;;8.13;2.92;;;11.60;99.90;;;;;;5072489;28;20048;-78
2022/06/04 03:19:45;;;;;;;8.25;3.22;;;11.70;99.90;;;;;;5055075;28;20045;-79
2022/06/04 03:22:11;;;;;;;9.40;3.15;;;11.70;99.90;;;;;;5055085;28;20056;-76
2022/06/04 03:24:37;;;;;;;5.55;2.80;;;11.70;99.90;;;;;;5073559;28;20052;-75
2022/06/04 03:27:03;;;;;;;9.15;3.08;;;11.70;99.90;;;;;;5072876;28;20052;-75
2022/06/04 03:29:29;;;;;;;7.30;2.85;;;11.60;99.90;;;;;;5054880;28;20052;-76
2022/06/04 03:31:57;;;;;;;8.40;3.03;;;11.60;99.90;;;;;;5055409;28;20241;-80
2022/06/04 03:34:22;;;;;;;7.25;2.97;;;11.60;99.90;;;;;;5055592;28;20048;-77
2022/06/04 03:36:48;;;;;;;13.85;4.07;;;11.60;99.90;;;;;;5073192;28;20559;-79
2022/06/04 03:39:14;;;;;;;7.28;3.03;;;11.60;99.90;;;;;;5074434;28;20045;-78
2022/06/04 03:41:40;;;;;;;8.63;3.28;;;11.50;99.90;;;;;;5073356;28;20056;-79
2022/06/04 03:44:07;;;;;;;9.55;3.20;;;11.60;99.90;;;;;;5054540;28;20091;-80
2022/06/04 03:46:32;;;;;;;5.93;2.97;;;11.60;99.90;;;;;;5072643;28;20056;-79
2022/06/04 03:48:59;;;;;;;8.60;3.53;;;11.60;99.90;;;;;;5072879;28;20063;-78
2022/06/04 03:51:27;;;;;;;11.20;3.80;;;11.60;99.90;;;;;;5038658;28;20071;-80
2022/06/04 03:53:53;;;;;;;7.72;3.70;;;11.60;99.90;;;;;;5073524;28;20087;-76
2022/06/04 03:56:19;;;;;;;9.50;3.97;;;11.60;99.90;;;;;;5041178;28;20150;-77
2022/06/04 03:58:45;;;;;;;7.75;2.60;;;11.70;99.90;;;;;;5040650;28;20048;-77
2022/06/04 04:01:17;;;;;;;7.32;2.88;;;11.70;99.90;;;;;;5061250;28;20059;-79
2022/06/04 04:03:44;;;;;;;7.82;2.90;;;11.70;99.90;;;;;;5055702;28;20048;-76
2022/06/04 04:06:19;;;;;;;5.90;2.70;;;11.80;99.90;;;;;;5072738;28;20059;-79
2022/06/04 04:08:45;;;;;;;8.82;3.92;;;11.80;99.90;;;;;;5072482;28;20048;-79
2022/06/04 04:11:13;;;;;;;10.55;3.33;;;11.80;99.90;;;;;;5073165;28;20052;-78
2022/06/04 04:13:40;;;;;;;8.88;3.60;;;11.80;99.90;;;;;;5054298;28;20392;-76
2022/06/04 04:16:10;;;;;;;9.65;2.97;;;11.90;99.90;;;;;;5072590;28;20052;-76
2022/06/04 04:18:37;;;;;;;6.88;2.70;;;11.90;99.90;;;;;;5054812;28;20056;-79
2022/06/04 04:21:08;;;;;;;7.18;2.85;;;12.00;99.90;;;;;;5055126;28;20048;-76
2022/06/04 04:23:34;;;;;;;8.98;2.97;;;12.00;99.90;;;;;;5072123;28;20496;-76
2022/06/04 04:26:01;;;;;;;9.02;2.92;;;12.00;99.90;;;;;;5054554;28;20049;-79
2022/06/04 04:28:27;;;;;;;6.78;2.40;;;12.10;99.90;;;;;;5072062;28;20094;-78
2022/06/04 04:30:53;;;;;;;9.10;3.45;;;12.10;99.90;;;;;;5071787;28;20052;-79
2022/06/04 04:33:19;;;;;;;9.23;3.35;;;12.20;99.90;;;;;;5072221;28;20108;-75
2022/06/04 04:35:46;;;;;;;8.20;3.35;;;12.20;99.90;;;;;;5054494;28;20075;-77
2022/06/04 04:38:12;;;;;;;9.40;3.13;;;12.30;99.90;;;;;;5053767;28;20106;-78
2022/06/04 04:40:42;;;;;;;6.75;3.20;;;12.30;99.90;;;;;;5071779;28;20045;-76
2022/06/04 04:43:08;;;;;;;7.13;3.25;;;12.40;99.90;;;;;;5071365;28;20048;-77
2022/06/04 04:45:34;;;;;;;7.47;3.08;;;12.40;99.90;;;;;;5071495;28;20150;-76
2022/06/04 04:48:00;;;;;;;10.15;2.88;;;12.40;99.90;;;;;;5053296;28;20080;-78
2022/06/04 04:50:31;;;;;;;7.05;3.28;;;12.50;99.90;;;;;;5053464;28;20118;-77
2022/06/04 04:52:57;;;;;;;9.55;3.17;;;12.60;99.90;;;;;;5036803;28;20040;-76
2022/06/04 04:55:24;;;;;;;6.82;2.70;;;12.60;99.90;;;;;;5071398;28;20104;-76
2022/06/04 04:57:50;;;;;;;7.25;3.05;;;12.70;99.90;;;;;;5071829;28;20052;-79
2022/06/04 05:00:18;;;;;;;7.70;3.45;;;12.80;99.90;;;;;;5073998;28;20053;-78
2022/06/04 05:02:44;;;;;;;7.25;2.78;;;12.90;99.90;;;;;;5075965;28;20072;-77
2022/06/04 05:05:11;;;;;;;6.35;2.85;;;13.10;99.90;;;;;;5072318;28;20080;-76
2022/06/04 05:07:38;;;;;;;8.77;3.67;;;13.20;99.90;;;;;;5055257;28;20052;-77
2022/06/04 05:10:05;;;;;;;6.20;3.05;;;13.20;99.90;;;;;;5053994;28;20056;-80
2022/06/04 05:12:31;;;;;;;6.20;2.85;;;13.20;99.90;;;;;;5071511;28;20082;-78
2022/06/04 05:14:57;;;;;;;5.15;2.95;;;13.20;99.90;;;;;;5071181;28;20048;-77
2022/06/04 05:17:23;;;;;;;8.15;3.28;;;13.20;99.90;;;;;;5052731;28;20052;-77
2022/06/04 05:19:49;;;;;;;5.43;3.20;;;13.20;99.90;;;;;;5071213;28;20052;-78
2022/06/04 05:22:14;;;;;;;10.68;3.50;;;13.20;99.90;;;;;;5071070;28;20052;-78
2022/06/04 05:24:43;;;;;;;6.50;3.03;;;13.20;99.90;;;;;;5036863;28;20049;-79
2022/06/04 05:27:10;;;;;;;8.88;4.13;;;13.30;99.90;;;;;;5037056;28;20048;-77
2022/06/04 05:29:37;;;;;;;10.77;3.30;;;13.40;99.90;;;;;;5053050;28;20052;-79
2022/06/04 05:32:04;;;;;;;5.80;3.30;;;13.50;99.90;;;;;;5070897;28;20492;-78
2022/06/04 05:34:31;;;;;;;5.90;3.58;;;13.60;99.90;;;;;;5070708;28;20044;-78
2022/06/04 05:36:57;;;;;;;9.52;3.40;;;13.70;99.90;;;;;;5036689;28;20078;-78
2022/06/04 05:39:23;;;;;;;7.88;3.40;;;13.70;99.90;;;;;;5052507;28;20503;-77
2022/06/04 05:41:50;;;;;;;9.95;3.90;;;13.80;99.90;;;;;;5070853;28;20040;-80
2022/06/04 05:44:17;;;;;;;6.95;3.42;;;13.80;99.90;;;;;;5070659;28;20061;-79
2022/06/04 05:46:44;;;;;;;5.78;3.17;;;13.80;99.90;;;;;;5071207;28;20047;-78
2022/06/04 05:49:12;;;;;;;9.75;3.20;;;13.80;99.90;;;;;;5049225;28;20056;-76
2022/06/04 05:51:40;;;;;;;7.75;3.33;;;13.90;99.90;;;;;;5034009;28;20072;-78
2022/06/04 05:54:06;;;;;;;7.07;2.80;;;13.90;99.90;;;;;;5050536;28;20135;-77
2022/06/04 05:56:35;;;;;;;10.23;3.30;;;14.00;99.90;;;;;;5052948;28;20045;-77
2022/06/04 05:59:04;;;;;;;6.40;3.00;;;14.10;99.90;;;;;;5057984;28;20095;-77
2022/06/04 06:01:31;;;;;;;8.02;2.97;;;14.40;99.90;;;;;;5045624;28;20052;-78
2022/06/04 06:03:58;;;;;;;6.10;2.72;;;14.60;99.90;;;;;;5049406;28;20544;-77
2022/06/04 06:06:27;;;;;;;7.53;3.28;;;14.60;99.90;;;;;;5049349;28;20057;-77
2022/06/04 06:08:55;;;;;;;6.07;3.45;;;14.80;99.90;;;;;;5050409;28;20060;-77
2022/06/04 06:11:22;;;;;;;5.28;2.70;;;14.80;99.90;;;;;;5049540;28;20060;-79
2022/06/04 06:13:50;;;;;;;8.15;2.83;;;14.80;99.90;;;;;;5050082;28;20103;-76
2022/06/04 06:16:22;;;;;;;9.07;3.42;;;14.90;99.90;;;;;;5050181;28;20095;-77
2022/06/04 06:18:48;;;;;;;5.68;3.00;;;15.10;99.90;;;;;;5048774;28;20060;-78
2022/06/04 06:21:17;;;;;;;6.10;2.30;;;15.40;99.90;;;;;;5048972;28;20099;-77
2022/06/04 06:23:43;;;;;;;7.05;2.78;;;15.50;99.90;;;;;;5048830;28;20560;-77
2022/06/04 06:26:13;;;;;;;8.18;2.78;;;15.40;99.90;;;;;;5049070;28;20092;-76
2022/06/04 06:28:41;;;;;;;5.20;2.60;;;15.30;99.90;;;;;;5032399;28;20107;-78
2022/06/04 06:31:09;;;;;;;6.07;3.03;;;15.20;99.90;;;;;;5049984;28;20057;-77
2022/06/04 06:33:35;;;;;;;7.80;2.97;;;15.20;99.90;;;;;;5049047;28;20110;-78
2022/06/04 06:36:05;;;;;;;6.57;2.83;;;15.10;99.90;;;;;;5049953;28;20100;-77
2022/06/04 06:38:31;;;;;;;6.40;3.25;;;15.10;99.90;;;;;;5032748;28;20136;-78
2022/06/04 06:40:58;;;;;;;8.27;3.20;;;15.10;99.90;;;;;;5050639;28;20420;-76
2022/06/04 06:43:47;;;;;;;6.00;2.58;;;15.10;99.90;;;;;;5049217;28;20089;-78
2022/06/04 06:46:17;;;;;;;6.00;2.75;;;15.10;99.90;;;;;;5032456;28;20401;-78
2022/06/04 06:48:45;;;;;;;6.35;3.30;;;15.30;99.90;;;;;;5055513;28;20092;-78
2022/06/04 06:51:22;;;;;;;6.78;2.65;;;15.60;99.90;;;;;;5071184;28;20119;-79
2022/06/04 06:53:48;;;;;;;7.93;2.80;;;15.50;99.90;;;;;;5023287;28;20063;-79
2022/06/04 06:56:20;;;;;;;7.60;2.28;;;15.60;99.90;;;;;;5039826;28;20127;-79
2022/06/04 06:58:50;;;;;;;7.53;2.60;;;15.60;99.90;;;;;;5055763;28;20048;-77
2022/06/04 07:01:16;;;;;;;5.40;3.00;;;15.80;99.90;;;;;;5074760;28;20060;-79
2022/06/04 07:03:42;;;;;;;8.35;2.25;;;15.90;99.90;;;;;;5076093;28;20049;-77
2022/06/04 07:06:11;;;;;;;7.90;3.03;;;15.90;99.90;;;;;;5078272;28;20051;-79
2022/06/04 07:08:39;;;;;;;7.35;2.78;;;15.90;99.90;;;;;;5074831;28;20512;-78
2022/06/04 07:11:05;;;;;;;8.60;3.13;;;15.80;99.90;;;;;;5043668;28;20063;-76
2022/06/04 07:13:31;;;;;;;9.88;2.97;;;15.70;99.90;;;;;;5074318;28;20063;-79
2022/06/04 07:15:58;;;;;;;6.22;2.70;;;15.80;99.90;;;;;;5074298;28;20125;-78
2022/06/04 07:18:24;;;;;;;9.93;3.20;;;15.70;99.90;;;;;;5074379;28;20052;-78
2022/06/04 07:20:50;;;;;;;6.93;2.70;;;15.70;99.90;;;;;;5055948;28;20049;-78
2022/06/04 07:23:18;;;;;;;6.88;2.38;;;15.90;99.90;;;;;;5056265;28;20056;-77
2022/06/04 07:25:46;;;;;;;4.80;2.58;;;15.80;99.90;;;;;;5073785;28;20055;-77
2022/06/04 07:28:13;;;;;;;7.47;2.60;;;16.00;99.90;;;;;;5056016;28;20051;-78
2022/06/04 07:30:39;;;;;;;7.43;2.92;;;16.20;99.90;;;;;;5040730;28;20060;-77
2022/06/04 07:33:05;;;;;;;8.02;2.80;;;16.10;99.90;;;;;;5060614;28;20044;-78
2022/06/04 07:35:32;;;;;;;8.25;2.85;;;16.10;99.90;;;;;;5075816;28;20084;-81
2022/06/04 07:37:58;;;;;;;7.60;2.90;;;16.30;99.90;;;;;;5076509;28;20045;-79
2022/06/04 07:40:25;;;;;;;5.60;2.10;;;16.50;99.90;;;;;;5079586;28;20048;-81
2022/06/04 07:42:50;;;;;;;7.35;2.78;;;16.50;99.90;;;;;;5076950;28;20088;-79
2022/06/04 07:45:16;;;;;;;4.97;2.53;;;16.60;99.90;;;;;;5058061;28;20056;-78
2022/06/04 07:47:44;;;;;;;7.10;3.05;;;16.60;99.90;;;;;;5075952;28;20048;-78
2022/06/04 07:50:12;;;;;;;11.38;3.38;;;16.80;99.90;;;;;;5056193;28;20098;-78
2022/06/04 07:52:38;;;;;;;11.60;3.35;;;16.70;99.90;;;;;;5072514;28;20049;-79
2022/06/04 07:55:07;;;;;;;6.22;2.70;;;16.70;99.90;;;;;;5073021;28;20451;-78
2022/06/04 07:57:36;;;;;;;9.38;2.53;;;16.80;99.90;;;;;;5072916;28;20053;-79
2022/06/04 08:00:05;;;;;;;5.70;2.53;;;17.00;99.90;;;;;;5055778;28;20119;-78
2022/06/04 08:02:31;;;;;;;10.57;2.40;;;17.10;99.90;;;;;;5055806;28;20099;-77
2022/06/04 08:04:57;;;;;;;8.75;3.35;;;17.10;99.90;;;;;;5039438;28;20405;-78
2022/06/04 08:07:24;;;;;;;5.28;2.28;;;17.00;99.90;;;;;;5073819;28;20437;-79
2022/06/04 08:09:50;;;;;;;7.50;2.65;;;17.00;99.90;;;;;;5059473;28;20135;-79
2022/06/04 08:12:17;;;;;;;6.45;3.03;;;17.00;99.90;;;;;;5058827;28;20049;-77
2022/06/04 08:14:45;;;;;;;6.35;2.95;;;17.10;99.90;;;;;;5076000;28;20041;-77
2022/06/04 08:17:12;;;;;;;5.80;2.28;;;16.90;99.90;;;;;;5057374;28;20285;-78
2022/06/04 08:19:40;;;;;;;6.10;2.47;;;17.20;99.90;;;;;;5076300;28;20418;-79
2022/06/04 08:22:10;;;;;;;7.82;2.80;;;17.40;99.90;;;;;;5078549;28;20123;-79
2022/06/04 08:24:36;;;;;;;8.65;2.85;;;17.70;99.90;;;;;;5058401;28;20132;-78
2022/06/04 08:27:02;;;;;;;6.95;2.55;;;17.80;99.90;;;;;;5057303;28;20123;-78
2022/06/04 08:29:31;;;;;;;6.25;2.17;;;17.80;99.90;;;;;;5039763;28;20083;-81
2022/06/04 08:31:59;;;;;;;5.70;2.33;;;17.80;99.90;;;;;;5074811;28;20106;-79
2022/06/04 08:34:25;;;;;;;7.05;2.70;;;18.00;99.90;;;;;;5072917;28;20040;-80
2022/06/04 08:36:51;;;;;;;5.25;2.20;;;18.30;99.90;;;;;;5075141;28;20364;-81
2022/06/04 08:39:18;;;;;;;5.75;2.10;;;18.60;99.90;;;;;;5040685;28;20052;-81
2022/06/04 08:42:05;;;;;;;8.40;2.28;;;18.80;99.90;;;;;;5055274;28;20060;-79
2022/06/04 08:44:41;;;;;;;4.20;2.20;;;18.90;99.20;;;;;;5055694;28;20047;-80
2022/06/04 08:47:08;;;;;;;7.32;2.60;;;18.90;98.90;;;;;;5055404;28;20063;-78
2022/06/04 08:49:39;;;;;;;6.88;2.10;;;18.90;99.20;;;;;;5071454;28;20075;-80
2022/06/04 08:52:25;;;;;;;4.13;2.03;;;18.70;98.70;;;;;;5038623;28;20080;-77
2022/06/04 08:58:10;;;;;;;6.65;2.08;;;19.20;98.60;;;;;;5071803;28;20064;-78
2022/06/04 09:01:03;;;;;;;4.40;2.20;;;19.30;98.20;;;;;;5048641;28;20056;-80
2022/06/04 09:03:36;;;;;;;8.20;2.20;;;19.50;97.90;;;;;;5043330;28;20084;-79
2022/06/04 09:06:39;;;;;;;4.45;2.25;;;19.40;97.50;;;;;;5054568;28;20381;-80
2022/06/04 09:09:31;;;;;;;4.00;1.88;;;19.60;95.80;;;;;;5072341;28;20084;-79
2022/06/04 09:12:26;;;;;;;5.07;2.17;;;19.50;96.40;;;;;;5044628;28;20159;-79
2022/06/04 09:15:03;;;;;;;4.70;1.92;;;19.50;95.80;;;;;;5053381;28;20059;-79
2022/06/04 09:17:39;;;;;;;6.07;2.65;;;19.70;97.20;;;;;;5073490;28;20131;-80
2022/06/04 09:20:17;;;;;;;5.97;2.20;;;19.70;96.10;;;;;;5054525;28;20102;-79
2022/06/04 09:22:47;;;;;;;7.53;2.25;;;19.80;96.50;;;;;;5053770;28;20051;-79
2022/06/04 09:25:21;;;;;;;8.90;2.60;;;19.80;96.40;;;;;;5053495;28;20508;-80
2022/06/04 09:28:11;;;;;;;9.13;2.20;;;20.00;96.20;;;;;;5055166;28;20057;-80
2022/06/04 09:30:40;;;;;;;5.10;2.17;;;20.00;95.70;;;;;;5056858;28;20071;-81
2022/06/04 09:33:27;;;;;;;9.25;2.40;;;20.00;96.20;;;;;;5073377;28;20134;-81
2022/06/04 09:35:55;;;;;;;6.15;2.65;;;20.20;95.90;;;;;;5054835;28;20103;-81
2022/06/04 09:38:31;;;;;;;5.53;2.53;;;20.40;96.10;;;;;;5038279;28;20167;-79
2022/06/04 09:41:18;;;;;;;4.78;2.20;;;20.50;95.40;;;;;;5056207;28;20139;-81
2022/06/04 09:44:13;;;;;;;7.18;2.40;;;20.50;94.50;;;;;;5055150;28;20056;-79
2022/06/04 09:46:45;;;;;;;8.68;2.50;;;20.70;94.90;;;;;;5038903;28;20080;-79
2022/06/04 09:49:37;;;;;;;5.50;2.10;;;20.60;95.20;;;;;;5074913;28;20068;-80
2022/06/04 09:52:41;;;;;;;8.85;2.50;;;20.60;95.00;;;;;;5059794;28;20102;-79
2022/06/04 09:55:20;;;;;;;7.65;1.63;;;20.60;94.60;;;;;;5074621;28;20060;-81
2022/06/04 09:58:16;;;;;;;5.95;2.17;;;20.50;94.70;;;;;;5073256;28;20095;-80
2022/06/04 10:01:06;;;;;;;5.15;2.30;;;20.60;94.30;;;;;;5057722;28;20071;-81
2022/06/04 10:03:36;;;;;;;6.40;1.73;;;20.60;93.90;;;;;;5052913;28;20118;-78
2022/06/04 10:06:02;;;;;;;7.88;2.03;;;20.70;94.40;;;;;;5070558;28;20053;-80
2022/06/04 10:08:30;;;;;;;6.43;2.10;;;20.80;94.50;;;;;;5070597;28;20052;-81
2022/06/04 10:11:01;;;;;;;4.85;1.75;;;20.80;94.60;;;;;;5019144;28;20049;-81
2022/06/04 10:13:42;;;;;;;4.18;1.83;;;21.00;94.40;;;;;;5052662;28;20528;-81
2022/06/04 10:16:27;;;;;;;6.32;2.50;;;20.80;94.60;;;;;;5070844;28;20056;-81
2022/06/04 10:18:53;;;;;;;5.53;2.50;;;20.90;94.10;;;;;;5053081;28;20056;-80
2022/06/04 10:21:26;;;;;;;14.98;3.78;;;21.00;94.60;;;;;;5052552;28;20044;-80
2022/06/04 10:23:57;;;;;;;7.07;2.43;;;21.20;94.70;;;;;;5036016;28;20095;-80
2022/06/04 10:26:29;;;;;;;10.30;2.75;;;21.10;94.10;;;;;;5055271;28;20399;-80
2022/06/04 10:29:13;;;;;;;8.43;2.50;;;21.20;93.80;;;;;;5056029;28;20067;-79
2022/06/04 10:31:48;;;;;;;6.93;2.70;;;21.30;94.10;;;;;;5074329;28;20052;-79
2022/06/04 10:34:28;;;;;;;6.63;2.47;;;21.20;93.60;;;;;;5056120;28;20474;-81
2022/06/04 10:37:00;;;;;;;5.57;1.90;;;21.40;93.50;;;;;;5074043;28;20052;-80
2022/06/04 10:39:47;;;;;;;7.68;2.58;;;21.50;92.90;;;;;;5074046;28;20048;-80
2022/06/04 10:42:24;;;;;;;7.80;2.55;;;21.60;93.30;;;;;;5055974;28;20555;-80
2022/06/04 10:45:13;;;;;;;10.57;2.53;;;21.90;93.20;;;;;;5055795;28;20519;-80
2022/06/04 10:47:54;;;;;;;8.85;2.53;;;21.90;91.70;;;;;;5073563;28;20061;-80
2022/06/04 10:50:27;;;;;;;6.50;2.40;;;22.20;92.00;;;;;;5073139;28;20452;-80
2022/06/04 10:53:04;;;;;;;15.57;2.85;;;22.40;91.80;;;;;;5058569;28;20484;-80
2022/06/04 10:55:41;;;;;;;10.43;2.60;;;22.30;91.90;;;;;;5074481;28;20051;-81
2022/06/04 10:58:21;;;;;;;5.45;2.25;;;22.60;91.60;;;;;;5073754;28;20044;-81
2022/06/04 11:01:23;;;;;;;6.35;2.15;;;22.20;90.30;;;;;;5038791;28;20492;-82
2022/06/04 11:03:48;;;;;;;7.80;2.50;;;21.90;90.50;;;;;;5025567;28;20197;-78
2022/06/04 11:06:25;;;;;;;6.15;3.25;;;21.80;92.00;;;;;;5038843;28;20132;-82
2022/06/04 11:09:16;;;;;;;8.45;2.28;;;22.00;91.90;;;;;;5073174;28;20678;-79
2022/06/04 11:11:58;;;;;;;8.07;2.60;;;22.30;91.40;;;;;;5073269;28;20048;-80
2022/06/04 11:14:41;;;;;;;5.13;2.22;;;22.40;91.00;;;;;;5073369;28;20399;-81
2022/06/04 11:17:21;;;;;;;6.32;2.58;;;22.30;90.40;;;;;;5073178;28;20453;-79
2022/06/04 11:20:10;;;;;;;5.95;2.45;;;22.30;91.90;;;;;;5073493;28;20144;-78
2022/06/04 11:22:39;;;;;;;9.00;2.65;;;22.00;91.30;;;;;;5054895;28;20056;-81
2022/06/04 11:25:32;;;;;;;5.82;2.50;;;22.40;91.90;;;;;;5055332;28;20095;-81
2022/06/04 11:28:01;;;;;;;8.38;2.63;;;22.60;90.60;;;;;;5064135;28;20048;-83
2022/06/04 11:30:41;;;;;;;6.10;2.60;;;22.60;90.20;;;;;;5038815;28;20056;-80
2022/06/04 11:33:32;;;;;;;9.43;2.60;;;22.70;90.50;;;;;;5075067;28;20048;-79
2022/06/04 11:36:17;;;;;;;7.63;2.47;;;22.90;90.30;;;;;;5077486;28;20131;-78
2022/06/04 11:38:51;;;;;;;5.30;2.70;;;23.20;88.70;;;;;;5059200;28;20048;-76
2022/06/04 11:41:22;;;;;;;8.50;2.35;;;23.30;88.60;;;;;;5058990;28;20052;-78
2022/06/04 11:43:56;;;;;;;6.60;2.25;;;22.90;88.70;;;;;;5055105;28;20040;-79
2022/06/04 11:46:37;;;;;;;7.70;2.35;;;23.00;89.70;;;;;;5054826;28;20611;-79
2022/06/04 11:49:21;;;;;;;7.43;2.55;;;23.20;89.10;;;;;;5072082;28;20523;-78
2022/06/04 11:52:11;;;;;;;7.78;3.00;;;23.20;86.50;;;;;;5072571;28;20564;-80
2022/06/04 11:55:14;;;;;;;9.13;2.53;;;23.50;85.40;;;;;;5023305;28;20056;-80
2022/06/04 11:58:02;;;;;;;6.75;2.35;;;23.50;84.90;;;;;;5072204;28;20515;-80
2022/06/04 12:00:34;;;;;;;8.40;2.47;;;23.50;85.50;;;;;;5054619;28;20055;-79
2022/06/04 12:03:26;;;;;;;7.70;2.50;;;23.70;83.70;;;;;;5054506;28;20048;-79
2022/06/04 12:06:12;;;;;;;8.45;2.72;;;23.60;82.90;;;;;;5073204;28;20515;-80
2022/06/04 12:09:08;;;;;;;9.95;2.67;;;23.10;82.70;;;;;;5073900;28;20048;-78
2022/06/04 12:11:42;;;;;;;7.00;2.33;;;23.10;84.50;;;;;;5054807;28;20049;-80
2022/06/04 12:14:14;;;;;;;7.50;3.03;;;23.20;86.00;;;;;;5054943;28;20088;-79
2022/06/04 12:17:22;;;;;;;8.48;2.92;;;23.30;87.30;;;;;;5056215;28;20507;-78
2022/06/04 12:25:42;;;;;;;8.82;2.83;;;23.50;83.40;;;;;;5055363;28;20147;-77
2022/06/04 12:28:27;;;;;;;6.50;2.15;;;23.40;84.50;;;;;;5073462;28;20044;-80
2022/06/04 12:30:55;;;;;;;9.77;3.25;;;23.60;84.80;;;;;;5055967;28;20049;-79
2022/06/04 12:33:50;;;;;;;8.93;2.92;;;23.70;83.00;;;;;;5057717;28;20051;-79
2022/06/04 12:36:26;;;;;;;;;;;23.70;80.40;;;;;;5057161;28;20053;-81
2022/06/04 12:39:06;;;;;;;7.25;1.90;;;23.80;83.60;;;;;;5072428;28;19924;-81
2022/06/04 12:42:06;;;;;;;9.52;2.50;;;23.80;82.80;;;;;;5072128;28;20095;-79
2022/06/04 12:44:34;;;;;;;6.68;2.35;;;23.70;84.10;;;;;;5057347;28;20488;-80
2022/06/04 12:47:30;;;;;;;9.95;2.42;;;23.90;82.90;;;;;;5053682;28;20106;-80
2022/06/04 12:50:15;;;;;;;9.55;2.97;;;24.00;80.40;;;;;;5053014;28;20545;-82
2022/06/04 12:52:48;;;;;;;7.97;2.33;;;24.20;79.40;;;;;;5036810;28;20060;-81
2022/06/04 12:55:22;;;;;;;8.57;2.40;;;24.70;79.70;;;;;;5053291;28;20049;-78
2022/06/04 12:57:51;;;;;;;4.88;1.77;;;24.60;77.50;;;;;;5053246;28;20052;-81
2022/06/04 13:00:17;;;;;;;6.78;2.13;;;24.70;76.30;;;;;;5071723;28;20504;-78
2022/06/04 13:03:07;;;;;;;7.97;2.20;;;24.70;74.90;;;;;;5071731;28;20040;-82
2022/06/04 13:05:36;;;;;;;7.65;2.40;;;25.10;72.60;;;;;;5072401;28;20123;-79
2022/06/04 13:08:10;;;;;;;6.00;2.05;;;25.40;75.00;;;;;;5076371;28;20149;-82
2022/06/04 13:10:36;;;;;;;8.75;3.25;;;25.30;72.80;;;;;;5075499;28;20087;-82
2022/06/04 13:13:33;;;;;;;6.38;2.03;;;25.60;71.40;;;;;;5054945;28;20062;-82
2022/06/04 13:16:04;;;;;;;6.70;2.42;;;25.50;69.80;;;;;;5016465;28;20051;-79
2022/06/04 13:18:37;;;;;;;6.95;2.03;;;25.70;68.10;;;;;;5071208;28;20048;-80
2022/06/04 13:21:17;;;;;;;9.15;2.63;;;25.80;70.20;;;;;;5053099;28;20135;-79
2022/06/04 13:23:56;;;;;;;6.00;1.75;;;26.20;68.00;;;;;;5071020;28;20053;-81
2022/06/04 13:26:52;;;;;;;7.00;1.70;;;26.10;66.30;;;;;;5071270;28;20049;-78
2022/06/04 13:29:26;;;;;;;8.60;2.17;;;26.10;61.90;;;;;;5052674;28;20052;-76
2022/06/04 13:32:15;;;;;;;8.75;2.60;;;26.20;63.10;;;;;;5071086;28;20048;-80
2022/06/04 13:34:42;;;;;;;5.57;1.98;;;26.30;62.30;;;;;;5070877;28;20095;-82